Time;durP1;ratioP1;P1;durP2;ratioP2;P2;SDS_P1;SDS_P2;PMS_P1;PMS_P2;Temp;Humidity;BMP_temperature;BMP_pressure;BME280_temperature;BME280_humidity;BME280_pressure;Samples;Min_cycle;Max_cycle;Signal;HPM_P1;HPM_P2
2021/10/15 00:00:57;;;;;;;4.20;2.50;;;;;16.20;98637.00;;;;5077424;28;20199;-90
2021/10/15 00:03:24;;;;;;;2.53;2.33;;;;;16.10;98630.00;;;;5077485;28;20603;-89
2021/10/15 00:05:51;;;;;;;3.10;2.90;;;;;16.10;98621.00;;;;5077365;28;20197;-89
2021/10/15 00:08:17;;;;;;;2.50;2.30;;;;;16.20;98620.00;;;;5095450;28;20269;-89
2021/10/15 00:10:44;;;;;;;2.80;2.60;;;;;16.10;98617.00;;;;5095112;28;20632;-89
2021/10/15 00:13:11;;;;;;;2.37;2.20;;;;;16.10;98611.00;;;;5076769;28;20279;-89
2021/10/15 00:15:38;;;;;;;3.13;2.87;;;;;16.10;98604.00;;;;5077285;28;20201;-89
2021/10/15 00:18:04;;;;;;;2.87;2.67;;;;;16.10;98611.00;;;;5077655;28;20196;-90
2021/10/15 00:20:31;;;;;;;2.67;2.47;;;;;16.10;98618.00;;;;5077156;28;20200;-89
2021/10/15 00:22:58;;;;;;;2.80;2.60;;;;;16.10;98610.00;;;;5076971;28;20225;-89
2021/10/15 00:25:24;;;;;;;2.67;2.47;;;;;16.10;98607.00;;;;5077502;28;20511;-89
2021/10/15 00:27:51;;;;;;;2.60;2.40;;;;;16.10;98603.00;;;;5060593;28;20202;-90
2021/10/15 00:30:18;;;;;;;2.77;2.57;;;;;16.10;98608.00;;;;5077567;28;20194;-90
2021/10/15 00:32:44;;;;;;;3.20;2.60;;;;;16.10;98610.00;;;;5060654;28;20192;-90
2021/10/15 00:35:11;;;;;;;2.60;2.40;;;;;16.10;98610.00;;;;5077155;28;20202;-90
2021/10/15 00:37:37;;;;;;;2.30;2.20;;;;;16.10;98589.00;;;;5060722;28;20202;-90
2021/10/15 00:40:04;;;;;;;2.67;2.47;;;;;16.10;98597.00;;;;5060446;28;20206;-90
2021/10/15 00:42:31;;;;;;;2.73;2.30;;;;;16.10;98586.00;;;;5077646;28;20307;-90
2021/10/15 00:44:58;;;;;;;2.33;2.23;;;;;16.10;98597.00;;;;5077124;28;20297;-90
2021/10/15 00:47:24;;;;;;;2.37;2.27;;;;;16.10;98604.00;;;;5077483;28;20207;-90
2021/10/15 00:49:51;;;;;;;2.57;2.47;;;;;16.00;98597.00;;;;5060711;28;20201;-90
2021/10/15 00:52:17;;;;;;;2.70;2.50;;;;;16.00;98591.00;;;;5077232;28;20201;-90
2021/10/15 00:54:46;;;;;;;2.60;2.40;;;;;16.00;98584.00;;;;5077132;28;20209;-90
2021/10/15 00:57:14;;;;;;;2.60;2.40;;;;;16.00;98586.00;;;;5060448;28;20627;-90
2021/10/15 00:59:41;;;;;;;2.50;2.40;;;;;16.00;98582.00;;;;5077276;28;20568;-90
2021/10/15 01:02:09;;;;;;;2.50;2.37;;;;;16.00;98588.00;;;;5060400;28;20641;-89
2021/10/15 01:04:37;;;;;;;2.60;2.40;;;;;16.00;98578.00;;;;5076900;28;20263;-90
2021/10/15 01:07:03;;;;;;;2.50;2.30;;;;;16.00;98571.00;;;;5077116;28;20198;-90
2021/10/15 01:09:35;;;;;;;2.63;2.43;;;;;16.00;98563.00;;;;5060389;28;20620;-90
2021/10/15 01:12:04;;;;;;;2.40;2.20;;;;;16.00;98562.00;;;;5076956;28;20254;-89
2021/10/15 01:14:31;;;;;;;2.37;2.27;;;;;16.00;98562.00;;;;5076868;28;20715;-89
2021/10/15 01:17:03;;;;;;;2.60;2.40;;;;;16.00;98557.00;;;;5077519;28;20194;-89
2021/10/15 01:19:31;;;;;;;2.40;2.20;;;;;16.00;98566.00;;;;5076612;28;20302;-89
2021/10/15 01:22:06;;;;;;;2.80;2.60;;;;;16.00;98557.00;;;;5076505;28;20194;-89
2021/10/15 01:24:34;;;;;;;3.13;2.60;;;;;16.00;98564.00;;;;5076632;28;20212;-89
2021/10/15 01:27:07;;;;;;;2.60;2.40;;;;;16.00;98549.00;;;;5080835;28;20289;-89
2021/10/15 01:29:35;;;;;;;2.60;2.40;;;;;16.00;98553.00;;;;5064650;28;20188;-89
2021/10/15 01:32:04;;;;;;;2.57;2.37;;;;;16.00;98548.00;;;;5080666;28;20516;-89
2021/10/15 01:34:30;;;;;;;2.70;2.50;;;;;16.00;98542.00;;;;5080191;28;20191;-89
2021/10/15 01:36:57;;;;;;;2.83;2.63;;;;;16.00;98535.00;;;;5080646;28;20202;-89
2021/10/15 01:39:24;;;;;;;2.13;2.03;;;;;16.00;98540.00;;;;5063734;28;20258;-90
2021/10/15 01:41:50;;;;;;;2.70;2.50;;;;;16.00;98537.00;;;;5080925;28;20516;-90
2021/10/15 01:44:17;;;;;;;2.50;2.30;;;;;15.90;98525.00;;;;5080848;28;20209;-90
2021/10/15 01:46:44;;;;;;;2.60;2.40;;;;;15.90;98525.00;;;;5080867;28;20204;-90
2021/10/15 01:49:11;;;;;;;3.30;2.40;;;;;15.90;98520.00;;;;5080429;28;20200;-90
2021/10/15 01:51:37;;;;;;;2.77;2.57;;;;;15.90;98517.00;;;;5080473;28;20190;-90
2021/10/15 01:54:05;;;;;;;2.70;2.50;;;;;15.90;98508.00;;;;5063458;28;20242;-89
2021/10/15 01:56:37;;;;;;;2.43;2.23;;;;;15.90;98514.00;;;;5080083;28;20219;-89
2021/10/15 01:59:04;;;;;;;2.40;2.20;;;;;15.90;98501.00;;;;5080090;28;20205;-89
2021/10/15 02:01:31;;;;;;;2.43;2.23;;;;;15.90;98506.00;;;;5080439;28;20263;-89
2021/10/15 02:03:58;;;;;;;2.60;2.40;;;;;15.90;98510.00;;;;5079928;28;20205;-89
2021/10/15 02:06:25;;;;;;;2.70;2.50;;;;;15.90;98514.00;;;;5063139;28;20196;-89
2021/10/15 02:08:52;;;;;;;2.70;2.50;;;;;15.90;98510.00;;;;5063112;28;20215;-89
2021/10/15 02:11:18;;;;;;;2.60;2.40;;;;;15.90;98518.00;;;;5080093;28;20202;-89
2021/10/15 02:13:45;;;;;;;2.67;2.47;;;;;15.90;98513.00;;;;5079475;28;20190;-89
2021/10/15 02:16:11;;;;;;;2.50;2.30;;;;;15.90;98502.00;;;;5079805;28;20189;-89
2021/10/15 02:18:38;;;;;;;2.80;2.60;;;;;15.90;98507.00;;;;5079644;28;20631;-89
2021/10/15 02:21:05;;;;;;;2.23;2.13;;;;;15.90;98507.00;;;;5079698;28;20190;-89
2021/10/15 02:23:31;;;;;;;2.60;2.40;;;;;15.90;98503.00;;;;5062628;28;20221;-89
2021/10/15 02:25:58;;;;;;;2.70;2.50;;;;;15.90;98506.00;;;;5079355;28;20220;-89
2021/10/15 02:28:24;;;;;;;2.60;2.40;;;;;15.90;98508.00;;;;5079563;28;20207;-89
2021/10/15 02:30:51;;;;;;;2.80;2.60;;;;;15.90;98493.00;;;;5079198;28;20196;-89
2021/10/15 02:33:18;;;;;;;2.67;2.47;;;;;15.90;98492.00;;;;5062953;28;20190;-89
2021/10/15 02:35:45;;;;;;;2.30;2.10;;;;;15.90;98491.00;;;;5096426;28;20186;-89
2021/10/15 02:38:11;;;;;;;2.63;2.43;;;;;15.80;98491.00;;;;5062468;28;20197;-89
2021/10/15 02:40:39;;;;;;;2.60;2.40;;;;;15.90;98483.00;;;;5079339;28;20190;-89
2021/10/15 02:43:05;;;;;;;2.37;2.20;;;;;15.80;98475.00;;;;5062834;28;20301;-89
2021/10/15 02:45:36;;;;;;;2.77;2.50;;;;;15.80;98485.00;;;;5078942;28;20289;-89
2021/10/15 02:48:06;;;;;;;2.90;2.60;;;;;15.80;98489.00;;;;5078938;28;20184;-89
2021/10/15 02:50:33;;;;;;;2.60;2.40;;;;;15.80;98484.00;;;;5078717;28;20198;-89
2021/10/15 02:52:59;;;;;;;2.60;2.40;;;;;15.80;98485.00;;;;5062182;28;20191;-88
2021/10/15 02:55:26;;;;;;;2.63;2.43;;;;;15.80;98484.00;;;;5078630;28;20204;-88
2021/10/15 02:57:53;;;;;;;2.60;2.40;;;;;15.80;98477.00;;;;5078606;28;20247;-88
2021/10/15 03:00:19;;;;;;;3.00;2.70;;;;;15.80;98478.00;;;;5096743;28;20188;-88
2021/10/15 03:02:46;;;;;;;2.70;2.50;;;;;15.80;98473.00;;;;5078794;28;20205;-89
2021/10/15 03:05:13;;;;;;;2.60;2.40;;;;;15.80;98468.00;;;;5078553;28;20587;-89
2021/10/15 03:07:39;;;;;;;2.70;2.50;;;;;15.80;98474.00;;;;5078572;28;20723;-88
2021/10/15 03:10:08;;;;;;;2.73;2.53;;;;;15.80;98462.00;;;;5079018;28;20651;-89
2021/10/15 03:12:36;;;;;;;2.80;2.60;;;;;15.80;98471.00;;;;5078974;28;20184;-88
2021/10/15 03:15:04;;;;;;;2.67;2.47;;;;;15.80;98460.00;;;;5078279;28;20295;-89
2021/10/15 03:17:30;;;;;;;2.60;2.40;;;;;15.80;98473.00;;;;5096144;28;20189;-89
2021/10/15 03:19:57;;;;;;;3.10;2.80;;;;;15.80;98460.00;;;;5078376;28;20208;-88
2021/10/15 03:22:23;;;;;;;2.60;2.40;;;;;15.80;98467.00;;;;5078169;28;20634;-89
2021/10/15 03:24:50;;;;;;;2.60;2.40;;;;;15.80;98465.00;;;;5078117;28;20241;-89
2021/10/15 03:27:16;;;;;;;2.73;2.53;;;;;15.80;98453.00;;;;5078162;28;20240;-88
2021/10/15 03:29:43;;;;;;;2.60;2.40;;;;;15.80;98473.00;;;;5078300;28;20619;-89
2021/10/15 03:32:10;;;;;;;2.70;2.50;;;;;15.80;98474.00;;;;5078032;28;20208;-89
2021/10/15 03:34:36;;;;;;;2.60;2.40;;;;;15.80;98472.00;;;;5061447;28;20196;-89
2021/10/15 03:37:03;;;;;;;2.50;2.40;;;;;15.70;98461.00;;;;5078899;28;20200;-89
2021/10/15 03:39:30;;;;;;;2.70;2.50;;;;;15.80;98476.00;;;;5077860;28;20620;-88
2021/10/15 03:41:56;;;;;;;2.80;2.33;;;;;15.70;98469.00;;;;5077956;28;20205;-88
2021/10/15 03:44:23;;;;;;;2.60;2.40;;;;;15.80;98471.00;;;;5077811;28;20220;-88
2021/10/15 03:46:49;;;;;;;2.50;2.30;;;;;15.70;98473.00;;;;5078274;28;20200;-88
2021/10/15 03:49:16;;;;;;;2.60;2.40;;;;;15.70;98460.00;;;;5060758;28;20214;-89
2021/10/15 03:51:42;;;;;;;2.70;2.50;;;;;15.70;98468.00;;;;5061988;28;20207;-89
2021/10/15 03:54:09;;;;;;;2.80;2.60;;;;;15.70;98458.00;;;;5077682;28;20218;-89
2021/10/15 03:56:36;;;;;;;2.77;2.40;;;;;15.70;98447.00;;;;5061120;28;20338;-89
2021/10/15 03:59:02;;;;;;;2.57;2.43;;;;;15.70;98463.00;;;;5077584;28;20201;-88
2021/10/15 04:01:29;;;;;;;2.67;2.47;;;;;15.70;98470.00;;;;5077824;28;20191;-89
2021/10/15 04:03:56;;;;;;;2.60;2.40;;;;;15.70;98464.00;;;;5077524;28;20223;-89
2021/10/15 04:06:22;;;;;;;2.60;2.40;;;;;15.70;98450.00;;;;5061727;28;20588;-89
2021/10/15 04:08:49;;;;;;;2.63;2.43;;;;;15.70;98454.00;;;;5077540;28;20196;-88
2021/10/15 04:11:17;;;;;;;2.43;2.23;;;;;15.70;98452.00;;;;5077342;28;20287;-88
2021/10/15 04:13:43;;;;;;;2.77;2.57;;;;;15.70;98464.00;;;;5077417;28;20216;-89
2021/10/15 04:16:10;;;;;;;2.40;2.20;;;;;15.70;98446.00;;;;5078128;28;20206;-89
2021/10/15 04:18:37;;;;;;;2.50;2.40;;;;;15.70;98457.00;;;;5077603;28;20190;-89
2021/10/15 04:21:03;;;;;;;2.73;2.53;;;;;15.70;98449.00;;;;5077510;28;20491;-89
2021/10/15 04:23:30;;;;;;;2.73;2.53;;;;;15.70;98448.00;;;;5077227;28;20212;-89
2021/10/15 04:25:57;;;;;;;2.60;2.40;;;;;15.70;98450.00;;;;5060756;28;20201;-89
2021/10/15 04:28:23;;;;;;;2.70;2.50;;;;;15.70;98445.00;;;;5077503;28;20198;-89
2021/10/15 04:30:50;;;;;;;2.40;2.30;;;;;15.70;98442.00;;;;5077313;28;20187;-89
2021/10/15 04:33:16;;;;;;;2.37;2.27;;;;;15.70;98443.00;;;;5077225;28;20681;-89
2021/10/15 04:35:43;;;;;;;2.20;2.10;;;;;15.70;98437.00;;;;5060580;28;20231;-89
2021/10/15 04:38:10;;;;;;;2.53;2.33;;;;;15.70;98440.00;;;;5077413;28;20201;-89
2021/10/15 04:40:37;;;;;;;2.67;2.47;;;;;15.70;98427.00;;;;5077082;28;20595;-89
2021/10/15 04:43:04;;;;;;;2.60;2.40;;;;;15.70;98426.00;;;;5077004;28;20196;-89
2021/10/15 04:45:30;;;;;;;2.50;2.30;;;;;15.70;98431.00;;;;5060632;28;20289;-89
2021/10/15 04:47:57;;;;;;;2.33;2.23;;;;;15.70;98419.00;;;;5060853;28;20196;-89
2021/10/15 04:50:24;;;;;;;2.60;2.40;;;;;15.70;98420.00;;;;5077111;28;20217;-89
2021/10/15 04:52:52;;;;;;;2.20;2.10;;;;;15.70;98422.00;;;;5060745;28;20192;-89
2021/10/15 04:55:19;;;;;;;2.40;2.20;;;;;15.70;98417.00;;;;5094875;28;20196;-89
2021/10/15 04:57:45;;;;;;;2.30;2.20;;;;;15.70;98420.00;;;;5077223;28;20241;-89
2021/10/15 05:00:18;;;;;;;2.37;2.17;;;;;15.70;98417.00;;;;5079849;28;20225;-89
2021/10/15 05:02:45;;;;;;;2.57;2.40;;;;;15.70;98416.00;;;;5080998;28;20212;-89
2021/10/15 05:05:13;;;;;;;2.30;2.20;;;;;15.70;98413.00;;;;5064501;28;20547;-89
2021/10/15 05:07:40;;;;;;;2.37;2.20;;;;;15.70;98405.00;;;;5064263;28;20605;-89
2021/10/15 05:10:07;;;;;;;2.30;2.17;;;;;15.70;98407.00;;;;5065341;28;20200;-89
2021/10/15 05:12:34;;;;;;;2.70;2.50;;;;;15.70;98412.00;;;;5080800;28;20207;-88
2021/10/15 05:15:00;;;;;;;2.50;2.30;;;;;15.70;98402.00;;;;5064215;28;20225;-88
2021/10/15 05:17:28;;;;;;;2.20;2.10;;;;;15.70;98406.00;;;;5080673;28;20204;-89
2021/10/15 05:19:55;;;;;;;2.10;2.00;;;;;15.70;98399.00;;;;5080800;28;20210;-89
2021/10/15 05:22:21;;;;;;;2.43;2.23;;;;;15.70;98411.00;;;;5064124;28;20307;-89
2021/10/15 05:24:48;;;;;;;2.50;2.30;;;;;15.70;98398.00;;;;5080766;28;20582;-89
2021/10/15 05:27:15;;;;;;;2.37;2.17;;;;;15.70;98402.00;;;;5080507;28;20208;-89
2021/10/15 05:29:47;;;;;;;2.27;2.17;;;;;15.70;98386.00;;;;5079286;28;20188;-89
2021/10/15 05:32:15;;;;;;;2.03;1.90;;;;;15.70;98397.00;;;;5062689;28;20197;-87
2021/10/15 05:34:43;;;;;;;2.80;2.30;;;;;15.70;98389.00;;;;5097867;28;20185;-88
2021/10/15 05:37:09;;;;;;;2.23;2.13;;;;;15.70;98394.00;;;;5080200;28;20186;-87
2021/10/15 05:39:36;;;;;;;2.10;2.00;;;;;15.70;98396.00;;;;5063602;28;20530;-87
2021/10/15 05:42:03;;;;;;;2.27;2.17;;;;;15.70;98393.00;;;;5063653;28;20196;-87
2021/10/15 05:44:29;;;;;;;2.20;2.10;;;;;15.70;98395.00;;;;5063711;28;20218;-87
2021/10/15 05:46:59;;;;;;;2.17;1.97;;;;;15.70;98397.00;;;;5080633;28;20185;-87
2021/10/15 05:49:26;;;;;;;2.30;2.20;;;;;15.80;98392.00;;;;5063989;28;20213;-87
2021/10/15 05:52:02;;;;;;;2.70;2.37;;;;;15.80;98394.00;;;;5080053;28;20203;-87
2021/10/15 05:54:33;;;;;;;2.10;2.00;;;;;15.80;98402.00;;;;5080504;28;20191;-87
2021/10/15 05:59:42;;;;;;;2.00;1.90;;;;;15.90;98401.00;;;;5079958;28;20189;-87
2021/10/15 06:02:09;;;;;;;2.20;2.10;;;;;15.90;98397.00;;;;5079776;28;20209;-87
2021/10/15 06:09:06;;;;;;;1.83;1.73;;;;;16.00;98407.00;;;;5097560;28;20176;-87
2021/10/15 06:15:45;;;;;;;2.00;1.90;;;;;16.00;98407.00;;;;5079708;28;20204;-88
2021/10/15 06:18:15;;;;;;;2.27;2.10;;;;;16.00;98403.00;;;;5079640;28;20621;-88
2021/10/15 06:20:43;;;;;;;2.33;2.00;;;;;16.00;98404.00;;;;5062901;28;20279;-87
2021/10/15 06:23:10;;;;;;;1.93;1.83;;;;;16.00;98401.00;;;;5062760;28;20206;-87
2021/10/15 06:25:37;;;;;;;2.33;2.13;;;;;16.00;98398.00;;;;5080321;28;20208;-88
2021/10/15 06:28:04;;;;;;;2.10;1.90;;;;;16.00;98407.00;;;;5080135;28;20609;-88
2021/10/15 06:30:31;;;;;;;2.00;1.90;;;;;16.00;98405.00;;;;5080226;28;20536;-88
2021/10/15 06:32:58;;;;;;;2.00;1.70;;;;;16.00;98406.00;;;;5080598;28;20199;-88
2021/10/15 06:35:24;;;;;;;1.97;1.87;;;;;16.00;98409.00;;;;5079786;28;20195;-88
2021/10/15 06:37:51;;;;;;;1.80;1.70;;;;;16.10;98414.00;;;;5079234;28;20208;-87
2021/10/15 06:40:19;;;;;;;1.80;1.70;;;;;16.00;98420.00;;;;5062555;28;20198;-87
2021/10/15 06:42:46;;;;;;;2.23;2.10;;;;;16.00;98421.00;;;;5062763;28;20197;-88
2021/10/15 06:45:14;;;;;;;1.97;1.77;;;;;16.00;98422.00;;;;5062414;28;20234;-88
2021/10/15 06:47:40;;;;;;;1.80;1.70;;;;;16.00;98436.00;;;;5078918;28;20225;-87
2021/10/15 06:50:08;;;;;;;2.00;1.90;;;;;16.00;98429.00;;;;5078849;28;20218;-87
2021/10/15 06:52:47;;;;;;;1.80;1.70;;;;;16.00;98441.00;;;;5078891;28;20209;-87
2021/10/15 06:55:15;;;;;;;1.77;1.67;;;;;16.00;98431.00;;;;5062241;28;20190;-86
2021/10/15 06:57:43;;;;;;;2.13;1.87;;;;;16.00;98429.00;;;;5079237;28;20638;-87
2021/10/15 07:00:10;;;;;;;2.13;2.00;;;;;16.00;98426.00;;;;5078757;28;20202;-87
2021/10/15 07:02:38;;;;;;;2.13;2.00;;;;;16.00;98423.00;;;;5078833;28;20212;-87
2021/10/15 07:05:06;;;;;;;2.30;1.93;;;;;16.10;98425.00;;;;5078593;28;20261;-87
2021/10/15 07:07:33;;;;;;;2.00;1.87;;;;;16.10;98429.00;;;;5078577;28;20209;-87
2021/10/15 07:10:00;;;;;;;1.97;1.87;;;;;16.10;98424.00;;;;5062044;28;20549;-87
2021/10/15 07:12:27;;;;;;;2.00;1.90;;;;;16.10;98419.00;;;;5078659;28;20187;-87
2021/10/15 07:14:54;;;;;;;2.00;1.80;;;;;16.10;98424.00;;;;5078546;28;20194;-87
2021/10/15 07:17:21;;;;;;;1.73;1.63;;;;;16.10;98420.00;;;;5079271;28;20509;-87
2021/10/15 07:19:48;;;;;;;2.00;1.90;;;;;16.10;98414.00;;;;5078400;28;20571;-87
2021/10/15 07:22:14;;;;;;;1.87;1.77;;;;;16.10;98415.00;;;;5078191;28;20529;-87
2021/10/15 07:24:41;;;;;;;2.20;2.00;;;;;16.10;98421.00;;;;5078150;28;20227;-88
2021/10/15 07:27:08;;;;;;;1.97;1.87;;;;;16.10;98426.00;;;;5061735;28;20196;-88
2021/10/15 07:29:34;;;;;;;2.30;2.10;;;;;16.10;98424.00;;;;5078185;28;20192;-87
2021/10/15 07:32:01;;;;;;;2.07;1.97;;;;;16.10;98434.00;;;;5078198;28;20201;-87
2021/10/15 07:34:27;;;;;;;2.20;1.70;;;;;16.10;98430.00;;;;5078449;28;20743;-88
2021/10/15 07:36:54;;;;;;;2.00;1.90;;;;;16.10;98430.00;;;;5078225;28;20198;-88
2021/10/15 07:39:22;;;;;;;2.07;1.87;;;;;16.10;98432.00;;;;5078245;28;20192;-88
2021/10/15 07:41:49;;;;;;;2.00;1.90;;;;;16.10;98435.00;;;;5078354;28;20189;-88
2021/10/15 07:44:16;;;;;;;2.00;1.90;;;;;16.10;98433.00;;;;5077858;28;20217;-88
2021/10/15 07:46:43;;;;;;;1.93;1.77;;;;;16.10;98447.00;;;;5062452;28;20197;-88
2021/10/15 07:49:10;;;;;;;2.13;2.03;;;;;16.10;98449.00;;;;5078307;28;20224;-88
2021/10/15 07:51:37;;;;;;;2.07;1.83;;;;;16.10;98446.00;;;;5078413;28;20196;-88
2021/10/15 07:54:04;;;;;;;2.10;2.00;;;;;16.10;98446.00;;;;5062274;28;20196;-88
2021/10/15 07:56:34;;;;;;;1.67;1.57;;;;;16.20;98442.00;;;;5079442;28;20202;-88
2021/10/15 07:59:01;;;;;;;1.80;1.70;;;;;16.20;98441.00;;;;5062186;28;20201;-88
2021/10/15 08:01:28;;;;;;;1.83;1.73;;;;;16.20;98444.00;;;;5078710;28;20201;-88
2021/10/15 08:03:55;;;;;;;2.10;2.00;;;;;16.20;98426.00;;;;5061500;28;20501;-89
2021/10/15 08:06:41;;;;;;;2.50;1.90;;;;;16.20;98445.00;;;;5064803;28;20282;-89
2021/10/15 08:09:07;;;;;;;1.80;1.70;;;;;16.20;98441.00;;;;5079231;28;20272;-89
2021/10/15 08:11:34;;;;;;;2.10;2.00;;;;;16.20;98445.00;;;;5062631;28;20203;-89
2021/10/15 08:14:01;;;;;;;1.80;1.70;;;;;16.20;98442.00;;;;5078480;28;20198;-88
2021/10/15 08:16:28;;;;;;;2.07;1.97;;;;;16.20;98444.00;;;;5078804;28;20606;-89
2021/10/15 08:18:55;;;;;;;1.90;1.80;;;;;16.20;98448.00;;;;5078493;28;20197;-88
2021/10/15 08:21:21;;;;;;;1.80;1.70;;;;;16.20;98447.00;;;;5061179;28;20525;-89
2021/10/15 08:23:48;;;;;;;2.27;2.07;;;;;16.20;98449.00;;;;5077493;28;20204;-89
2021/10/15 08:26:15;;;;;;;1.93;1.83;;;;;16.20;98453.00;;;;5077614;28;20192;-89
2021/10/15 08:28:46;;;;;;;2.00;1.90;;;;;16.20;98454.00;;;;5060725;28;20275;-89
2021/10/15 08:31:16;;;;;;;2.30;2.10;;;;;16.20;98448.00;;;;5077190;28;20202;-89
2021/10/15 08:33:43;;;;;;;1.90;1.80;;;;;16.20;98450.00;;;;5077549;28;20251;-89
2021/10/15 08:36:10;;;;;;;1.97;1.87;;;;;16.20;98467.00;;;;5094920;28;20187;-90
2021/10/15 08:38:36;;;;;;;1.90;1.80;;;;;16.20;98455.00;;;;5077084;28;20256;-90
2021/10/15 08:41:03;;;;;;;2.10;2.00;;;;;16.20;98461.00;;;;5076916;28;20609;-90
2021/10/15 08:43:37;;;;;;;2.90;1.93;;;;;16.20;98453.00;;;;5077012;28;20191;-89
2021/10/15 08:46:04;;;;;;;2.03;1.90;;;;;16.20;98460.00;;;;5077182;28;20213;-89
2021/10/15 08:48:39;;;;;;;2.17;1.87;;;;;16.20;98455.00;;;;5077840;28;20182;-89
2021/10/15 08:51:07;;;;;;;2.30;2.10;;;;;16.20;98460.00;;;;5060230;28;20670;-89
2021/10/15 08:53:52;;;;;;;2.20;2.00;;;;;16.20;98451.00;;;;5076909;28;20206;-89
2021/10/15 08:56:23;;;;;;;1.67;1.57;;;;;16.20;98465.00;;;;5060397;28;20190;-88
2021/10/15 08:58:59;;;;;;;1.83;1.73;;;;;16.20;98462.00;;;;5077538;28;20200;-88
2021/10/15 09:01:28;;;;;;;1.90;1.80;;;;;16.20;98464.00;;;;5077318;28;20530;-88
2021/10/15 09:04:03;;;;;;;2.13;2.00;;;;;16.20;98462.00;;;;5076678;28;20198;-88
2021/10/15 09:06:40;;;;;;;2.13;1.90;;;;;16.20;98468.00;;;;5076880;28;20171;-88
2021/10/15 09:09:08;;;;;;;1.80;1.70;;;;;16.20;98457.00;;;;5059983;28;20204;-87
2021/10/15 09:11:39;;;;;;;1.90;1.80;;;;;16.20;98468.00;;;;5059977;28;20194;-88
2021/10/15 09:14:16;;;;;;;2.03;1.83;;;;;16.20;98473.00;;;;5060038;28;20191;-88
2021/10/15 09:17:06;;;;;;;1.90;1.73;;;;;16.10;98463.00;;;;5076561;28;20234;-87
2021/10/15 09:19:36;;;;;;;2.00;1.80;;;;;16.10;98470.00;;;;5076525;28;20202;-88
2021/10/15 09:22:27;;;;;;;2.03;1.80;;;;;16.10;98470.00;;;;5059823;28;20205;-87
2021/10/15 09:25:06;;;;;;;2.10;1.97;;;;;16.10;98471.00;;;;5059757;28;20216;-88
2021/10/15 09:27:42;;;;;;;1.67;1.57;;;;;16.10;98469.00;;;;5076676;28;20223;-87
2021/10/15 09:30:15;;;;;;;2.87;1.80;;;;;16.10;98470.00;;;;5077265;28;20512;-88
2021/10/15 09:32:48;;;;;;;2.10;1.80;;;;;16.10;98480.00;;;;5076786;28;20245;-88
2021/10/15 09:35:18;;;;;;;1.77;1.67;;;;;16.10;98479.00;;;;5076337;28;20200;-88
2021/10/15 09:37:47;;;;;;;2.10;1.90;;;;;16.10;98478.00;;;;5076371;28;20193;-88
2021/10/15 09:40:18;;;;;;;1.97;1.87;;;;;16.10;98481.00;;;;5076320;28;20200;-88
2021/10/15 09:42:46;;;;;;;2.13;2.03;;;;;16.00;98478.00;;;;5077056;28;20189;-87
2021/10/15 09:45:21;;;;;;;1.70;1.60;;;;;16.00;98473.00;;;;5076738;28;20215;-88
2021/10/15 09:47:54;;;;;;;2.33;1.90;;;;;16.00;98484.00;;;;5079917;28;20515;-88
2021/10/15 09:50:25;;;;;;;2.10;2.00;;;;;16.00;98468.00;;;;5063454;28;20180;-89
2021/10/15 09:52:57;;;;;;;1.90;1.80;;;;;16.00;98466.00;;;;5079996;28;20195;-88
2021/10/15 09:55:36;;;;;;;2.10;2.00;;;;;16.10;98472.00;;;;5079794;28;20285;-88
2021/10/15 09:58:19;;;;;;;1.90;1.80;;;;;16.10;98470.00;;;;5079896;28;20188;-88
2021/10/15 10:00:47;;;;;;;3.07;2.17;;;;;16.10;98459.00;;;;5080040;28;20216;-88
2021/10/15 10:03:15;;;;;;;2.40;2.20;;;;;16.10;98457.00;;;;5080232;28;20197;-89
2021/10/15 10:05:41;;;;;;;2.80;2.60;;;;;16.10;98472.00;;;;5063365;28;20226;-88
2021/10/15 10:08:10;;;;;;;3.10;2.80;;;;;16.10;98460.00;;;;5063051;28;20203;-87
2021/10/15 10:10:38;;;;;;;2.80;2.60;;;;;16.20;98467.00;;;;5079715;28;20532;-87
2021/10/15 10:13:07;;;;;;;3.43;2.70;;;;;16.20;98471.00;;;;5079337;28;20192;-87
2021/10/15 10:15:37;;;;;;;2.90;2.70;;;;;16.20;98471.00;;;;5080475;28;20180;-86
2021/10/15 10:18:28;;;;;;;3.00;2.80;;;;;16.20;98472.00;;;;5079749;28;20183;-86
2021/10/15 10:21:05;;;;;;;2.80;2.60;;;;;16.20;98473.00;;;;5097918;28;20527;-86
2021/10/15 10:23:40;;;;;;;3.10;2.80;;;;;16.20;98470.00;;;;5097450;28;20202;-87
2021/10/15 10:26:11;;;;;;;3.07;2.77;;;;;16.20;98470.00;;;;5079248;28;20214;-87
2021/10/15 10:28:39;;;;;;;2.47;2.27;;;;;16.20;98457.00;;;;5079576;28;20182;-86
2021/10/15 10:31:19;;;;;;;2.77;2.30;;;;;16.20;98460.00;;;;5080729;28;20619;-87
2021/10/15 10:33:54;;;;;;;2.53;2.33;;;;;16.20;98450.00;;;;5079473;28;20272;-87
2021/10/15 10:36:21;;;;;;;2.67;2.30;;;;;16.20;98453.00;;;;5097110;28;20612;-89
2021/10/15 10:38:48;;;;;;;2.60;2.40;;;;;16.20;98444.00;;;;5078927;28;20276;-86
2021/10/15 10:41:18;;;;;;;2.27;2.10;;;;;16.20;98446.00;;;;5062378;28;20528;-87
2021/10/15 10:43:44;;;;;;;2.13;2.03;;;;;16.20;98441.00;;;;5062192;28;20194;-87
2021/10/15 10:46:25;;;;;;;2.67;2.47;;;;;16.20;98445.00;;;;5079234;28;20212;-88
2021/10/15 10:48:52;;;;;;;2.10;2.00;;;;;16.20;98447.00;;;;5079091;28;20233;-87
2021/10/15 10:51:27;;;;;;;2.60;2.40;;;;;16.20;98446.00;;;;5078638;28;20196;-87
2021/10/15 10:53:57;;;;;;;2.57;2.37;;;;;16.20;98446.00;;;;5079158;28;20175;-87
2021/10/15 10:56:50;;;;;;;2.03;1.93;;;;;16.20;98454.00;;;;5078417;28;20212;-87
2021/10/15 10:59:18;;;;;;;2.37;2.10;;;;;16.20;98455.00;;;;5060542;28;20198;-88
2021/10/15 11:01:49;;;;;;;2.10;2.00;;;;;16.20;98454.00;;;;5078897;28;20199;-86
2021/10/15 11:04:26;;;;;;;2.10;2.00;;;;;16.20;98445.00;;;;5078721;28;20184;-86
2021/10/15 11:06:58;;;;;;;3.00;2.80;;;;;16.20;98431.00;;;;5095648;28;20226;-87
2021/10/15 11:09:44;;;;;;;2.97;2.77;;;;;16.20;98429.00;;;;5078605;28;20261;-87
2021/10/15 11:12:22;;;;;;;2.47;2.27;;;;;16.20;98434.00;;;;5078162;28;20196;-87
2021/10/15 11:15:04;;;;;;;3.60;2.40;;;;;16.20;98429.00;;;;5078050;28;20190;-87
2021/10/15 11:17:32;;;;;;;2.40;2.20;;;;;16.20;98430.00;;;;5061790;28;20198;-87
2021/10/15 11:20:21;;;;;;;2.63;2.40;;;;;16.20;98433.00;;;;5076942;28;20200;-86
2021/10/15 11:23:10;;;;;;;2.27;2.07;;;;;16.20;98436.00;;;;5061377;28;20188;-87
2021/10/15 11:25:42;;;;;;;2.30;2.10;;;;;16.20;98428.00;;;;5077899;28;20213;-88
2021/10/15 11:28:14;;;;;;;2.47;2.27;;;;;16.20;98430.00;;;;5078301;28;20182;-87
2021/10/15 11:30:44;;;;;;;2.17;2.00;;;;;16.20;98428.00;;;;5078126;28;20196;-87
2021/10/15 11:33:13;;;;;;;2.20;2.10;;;;;16.20;98428.00;;;;5061497;28;20202;-88
2021/10/15 11:35:43;;;;;;;1.83;1.73;;;;;16.20;98411.00;;;;5078133;28;20194;-88
2021/10/15 11:38:21;;;;;;;2.30;2.20;;;;;16.20;98423.00;;;;5078460;28;20204;-87
2021/10/15 11:40:53;;;;;;;2.53;2.33;;;;;16.20;98425.00;;;;5095707;28;20197;-87
2021/10/15 11:43:35;;;;;;;2.00;1.90;;;;;16.20;98418.00;;;;5077772;28;20196;-87
2021/10/15 11:46:05;;;;;;;2.30;2.10;;;;;16.10;98414.00;;;;5077600;28;20208;-86
2021/10/15 11:48:45;;;;;;;1.90;1.80;;;;;16.20;98417.00;;;;5077555;28;20225;-88
2021/10/15 11:51:14;;;;;;;2.03;1.73;;;;;16.10;98410.00;;;;5077648;28;20539;-87
2021/10/15 11:53:43;;;;;;;1.93;1.83;;;;;16.10;98413.00;;;;5077907;28;20201;-87
2021/10/15 11:56:16;;;;;;;2.03;1.93;;;;;16.10;98404.00;;;;5077553;28;20191;-86
2021/10/15 11:58:46;;;;;;;1.70;1.60;;;;;16.10;98404.00;;;;5095401;28;20254;-86
2021/10/15 12:01:22;;;;;;;2.13;1.93;;;;;16.10;98404.00;;;;5095279;28;20183;-86
2021/10/15 12:03:54;;;;;;;1.80;1.70;;;;;16.10;98397.00;;;;5077677;28;20219;-87
2021/10/15 12:06:28;;;;;;;2.47;1.90;;;;;16.10;98391.00;;;;5077344;28;20662;-86
2021/10/15 12:09:12;;;;;;;2.77;2.10;;;;;16.10;98391.00;;;;5077737;28;20200;-87
2021/10/15 12:11:39;;;;;;;2.03;1.93;;;;;16.10;98394.00;;;;5077220;28;20192;-87
2021/10/15 12:14:17;;;;;;;2.07;1.97;;;;;16.10;98393.00;;;;5077178;28;20221;-86
2021/10/15 12:16:45;;;;;;;2.13;2.03;;;;;16.20;98387.00;;;;5077086;28;20187;-87
2021/10/15 12:19:22;;;;;;;2.70;1.90;;;;;16.20;98380.00;;;;5077361;28;20203;-86
2021/10/15 12:21:56;;;;;;;2.43;1.90;;;;;16.20;98381.00;;;;5094997;28;20481;-85
2021/10/15 12:24:35;;;;;;;1.93;1.80;;;;;16.20;98381.00;;;;5077205;28;20191;-86
2021/10/15 12:27:35;;;;;;;2.27;2.07;;;;;16.20;98386.00;;;;5077060;28;20208;-86
2021/10/15 12:30:06;;;;;;;2.07;1.97;;;;;16.20;98384.00;;;;5060811;28;20194;-87
2021/10/15 12:32:37;;;;;;;1.90;1.80;;;;;16.30;98386.00;;;;5077084;28;20200;-88
2021/10/15 12:35:18;;;;;;;1.97;1.87;;;;;16.30;98374.00;;;;5077180;28;20184;-87
2021/10/15 12:37:51;;;;;;;2.03;1.93;;;;;16.30;98376.00;;;;5077018;28;20182;-88
2021/10/15 12:40:26;;;;;;;1.93;1.83;;;;;16.30;98375.00;;;;5060450;28;20202;-87